sensor_id;sensor_type;location;lat;lon;timestamp;P1;durP1;ratioP1;P2;durP2;ratioP2
12597;SDS011;6364;53.590;9.956;2023-06-19T00:00:33;6.85;;;5.93;;
12597;SDS011;6364;53.590;9.956;2023-06-19T00:02:58;8.77;;;6.30;;
12597;SDS011;6364;53.590;9.956;2023-06-19T00:05:24;7.72;;;6.57;;
12597;SDS011;6364;53.590;9.956;2023-06-19T00:07:50;6.80;;;6.10;;
12597;SDS011;6364;53.590;9.956;2023-06-19T00:10:15;7.43;;;6.15;;
12597;SDS011;6364;53.590;9.956;2023-06-19T00:12:40;7.78;;;5.90;;
12597;SDS011;6364;53.590;9.956;2023-06-19T00:15:06;6.68;;;6.07;;
12597;SDS011;6364;53.590;9.956;2023-06-19T00:17:34;9.23;;;6.22;;
12597;SDS011;6364;53.590;9.956;2023-06-19T00:20:02;8.85;;;6.18;;
12597;SDS011;6364;53.590;9.956;2023-06-19T00:22:31;7.35;;;6.32;;
12597;SDS011;6364;53.590;9.956;2023-06-19T00:24:56;8.15;;;6.38;;
12597;SDS011;6364;53.590;9.956;2023-06-19T00:27:22;8.13;;;6.28;;
12597;SDS011;6364;53.590;9.956;2023-06-19T00:29:49;8.32;;;6.00;;
12597;SDS011;6364;53.590;9.956;2023-06-19T00:32:14;7.07;;;6.38;;
12597;SDS011;6364;53.590;9.956;2023-06-19T00:34:39;11.13;;;6.78;;
12597;SDS011;6364;53.590;9.956;2023-06-19T00:37:06;9.52;;;6.10;;
12597;SDS011;6364;53.590;9.956;2023-06-19T00:39:31;8.63;;;6.72;;
12597;SDS011;6364;53.590;9.956;2023-06-19T00:41:57;8.73;;;6.60;;
12597;SDS011;6364;53.590;9.956;2023-06-19T00:44:23;10.55;;;6.78;;
12597;SDS011;6364;53.590;9.956;2023-06-19T00:46:51;7.50;;;6.13;;
12597;SDS011;6364;53.590;9.956;2023-06-19T00:49:22;7.47;;;6.68;;
12597;SDS011;6364;53.590;9.956;2023-06-19T00:51:47;7.63;;;6.55;;
12597;SDS011;6364;53.590;9.956;2023-06-19T00:54:13;9.98;;;7.10;;
12597;SDS011;6364;53.590;9.956;2023-06-19T00:56:38;9.63;;;6.70;;
12597;SDS011;6364;53.590;9.956;2023-06-19T00:59:06;7.32;;;6.25;;
12597;SDS011;6364;53.590;9.956;2023-06-19T01:01:33;7.63;;;6.90;;
12597;SDS011;6364;53.590;9.956;2023-06-19T01:03:59;8.25;;;6.28;;
12597;SDS011;6364;53.590;9.956;2023-06-19T01:06:25;7.47;;;6.65;;
12597;SDS011;6364;53.590;9.956;2023-06-19T01:11:22;9.55;;;6.80;;
12597;SDS011;6364;53.590;9.956;2023-06-19T01:13:50;14.20;;;7.45;;
12597;SDS011;6364;53.590;9.956;2023-06-19T01:18:48;11.35;;;6.95;;
12597;SDS011;6364;53.590;9.956;2023-06-19T01:21:17;7.60;;;6.80;;
12597;SDS011;6364;53.590;9.956;2023-06-19T01:23:43;10.48;;;7.00;;
12597;SDS011;6364;53.590;9.956;2023-06-19T01:26:09;9.52;;;6.80;;
12597;SDS011;6364;53.590;9.956;2023-06-19T01:28:35;10.05;;;7.20;;
12597;SDS011;6364;53.590;9.956;2023-06-19T01:31:06;8.98;;;6.55;;
12597;SDS011;6364;53.590;9.956;2023-06-19T01:33:35;9.20;;;7.13;;
12597;SDS011;6364;53.590;9.956;2023-06-19T01:36:03;7.97;;;7.15;;
12597;SDS011;6364;53.590;9.956;2023-06-19T01:38:29;8.60;;;7.18;;
12597;SDS011;6364;53.590;9.956;2023-06-19T01:40:56;9.35;;;6.97;;
12597;SDS011;6364;53.590;9.956;2023-06-19T01:43:23;9.10;;;7.43;;
12597;SDS011;6364;53.590;9.956;2023-06-19T01:45:48;8.90;;;7.18;;
12597;SDS011;6364;53.590;9.956;2023-06-19T01:48:14;7.82;;;7.03;;
12597;SDS011;6364;53.590;9.956;2023-06-19T01:50:40;9.88;;;6.75;;
12597;SDS011;6364;53.590;9.956;2023-06-19T01:53:06;8.13;;;7.00;;
12597;SDS011;6364;53.590;9.956;2023-06-19T01:55:31;7.88;;;7.05;;
12597;SDS011;6364;53.590;9.956;2023-06-19T01:57:57;7.35;;;6.65;;
12597;SDS011;6364;53.590;9.956;2023-06-19T02:00:22;8.25;;;7.38;;
12597;SDS011;6364;53.590;9.956;2023-06-19T02:02:48;8.80;;;7.55;;
12597;SDS011;6364;53.590;9.956;2023-06-19T02:05:13;8.57;;;7.50;;
12597;SDS011;6364;53.590;9.956;2023-06-19T02:07:38;10.13;;;7.35;;
12597;SDS011;6364;53.590;9.956;2023-06-19T02:10:04;11.50;;;7.28;;
12597;SDS011;6364;53.590;9.956;2023-06-19T02:12:30;10.85;;;7.90;;
12597;SDS011;6364;53.590;9.956;2023-06-19T02:14:55;8.35;;;7.28;;
12597;SDS011;6364;53.590;9.956;2023-06-19T02:17:21;9.55;;;7.47;;
12597;SDS011;6364;53.590;9.956;2023-06-19T02:19:46;8.13;;;7.10;;
12597;SDS011;6364;53.590;9.956;2023-06-19T02:22:11;9.48;;;7.68;;
12597;SDS011;6364;53.590;9.956;2023-06-19T02:24:37;10.20;;;8.18;;
12597;SDS011;6364;53.590;9.956;2023-06-19T02:27:02;8.55;;;7.68;;
12597;SDS011;6364;53.590;9.956;2023-06-19T02:29:28;12.75;;;8.63;;
12597;SDS011;6364;53.590;9.956;2023-06-19T02:31:54;9.85;;;8.38;;
12597;SDS011;6364;53.590;9.956;2023-06-19T02:34:20;11.23;;;8.20;;
12597;SDS011;6364;53.590;9.956;2023-06-19T02:36:45;9.75;;;7.80;;
12597;SDS011;6364;53.590;9.956;2023-06-19T02:39:12;11.57;;;7.85;;
12597;SDS011;6364;53.590;9.956;2023-06-19T02:41:38;9.35;;;7.90;;
12597;SDS011;6364;53.590;9.956;2023-06-19T02:44:03;9.25;;;7.72;;
12597;SDS011;6364;53.590;9.956;2023-06-19T02:46:28;8.93;;;8.02;;
12597;SDS011;6364;53.590;9.956;2023-06-19T02:48:54;8.68;;;7.78;;
12597;SDS011;6364;53.590;9.956;2023-06-19T02:51:19;9.32;;;7.40;;
12597;SDS011;6364;53.590;9.956;2023-06-19T02:53:44;9.43;;;8.13;;
12597;SDS011;6364;53.590;9.956;2023-06-19T02:56:11;11.90;;;8.13;;
12597;SDS011;6364;53.590;9.956;2023-06-19T02:58:36;9.40;;;7.95;;
12597;SDS011;6364;53.590;9.956;2023-06-19T03:01:02;9.50;;;8.50;;
12597;SDS011;6364;53.590;9.956;2023-06-19T03:03:28;9.23;;;8.30;;
12597;SDS011;6364;53.590;9.956;2023-06-19T03:05:53;8.90;;;8.00;;
12597;SDS011;6364;53.590;9.956;2023-06-19T03:08:18;11.25;;;7.82;;
12597;SDS011;6364;53.590;9.956;2023-06-19T03:10:44;10.60;;;8.30;;
12597;SDS011;6364;53.590;9.956;2023-06-19T03:13:09;9.18;;;8.15;;
12597;SDS011;6364;53.590;9.956;2023-06-19T03:15:35;8.43;;;7.57;;
12597;SDS011;6364;53.590;9.956;2023-06-19T03:18:00;9.93;;;8.02;;
12597;SDS011;6364;53.590;9.956;2023-06-19T03:20:29;10.10;;;8.60;;
12597;SDS011;6364;53.590;9.956;2023-06-19T03:22:54;10.57;;;8.77;;
12597;SDS011;6364;53.590;9.956;2023-06-19T03:25:19;10.52;;;8.73;;
12597;SDS011;6364;53.590;9.956;2023-06-19T03:27:45;10.75;;;8.07;;
12597;SDS011;6364;53.590;9.956;2023-06-19T03:30:10;10.90;;;8.95;;
12597;SDS011;6364;53.590;9.956;2023-06-19T03:32:37;12.95;;;9.02;;
12597;SDS011;6364;53.590;9.956;2023-06-19T03:35:03;9.57;;;8.48;;
12597;SDS011;6364;53.590;9.956;2023-06-19T03:37:30;10.13;;;9.00;;
12597;SDS011;6364;53.590;9.956;2023-06-19T03:39:57;11.93;;;8.63;;
12597;SDS011;6364;53.590;9.956;2023-06-19T03:42:22;13.90;;;9.20;;
12597;SDS011;6364;53.590;9.956;2023-06-19T03:44:48;10.30;;;8.48;;
12597;SDS011;6364;53.590;9.956;2023-06-19T03:47:13;9.82;;;8.30;;
12597;SDS011;6364;53.590;9.956;2023-06-19T03:49:38;11.05;;;9.00;;
12597;SDS011;6364;53.590;9.956;2023-06-19T03:52:04;10.65;;;9.05;;
12597;SDS011;6364;53.590;9.956;2023-06-19T03:54:29;12.27;;;8.45;;
12597;SDS011;6364;53.590;9.956;2023-06-19T03:56:55;12.32;;;8.88;;
12597;SDS011;6364;53.590;9.956;2023-06-19T03:59:20;10.82;;;9.10;;
12597;SDS011;6364;53.590;9.956;2023-06-19T04:01:45;9.20;;;8.20;;
12597;SDS011;6364;53.590;9.956;2023-06-19T04:04:11;10.60;;;8.57;;
12597;SDS011;6364;53.590;9.956;2023-06-19T04:06:36;11.73;;;8.95;;
12597;SDS011;6364;53.590;9.956;2023-06-19T04:09:01;12.43;;;8.80;;
12597;SDS011;6364;53.590;9.956;2023-06-19T04:11:27;10.80;;;8.98;;
12597;SDS011;6364;53.590;9.956;2023-06-19T04:13:52;9.95;;;8.80;;
12597;SDS011;6364;53.590;9.956;2023-06-19T04:16:17;14.50;;;8.75;;
12597;SDS011;6364;53.590;9.956;2023-06-19T04:18:42;10.07;;;8.85;;
12597;SDS011;6364;53.590;9.956;2023-06-19T04:21:08;11.82;;;8.90;;
12597;SDS011;6364;53.590;9.956;2023-06-19T04:23:33;10.18;;;8.90;;
12597;SDS011;6364;53.590;9.956;2023-06-19T04:25:58;13.10;;;9.32;;
12597;SDS011;6364;53.590;9.956;2023-06-19T04:28:24;9.85;;;8.80;;
12597;SDS011;6364;53.590;9.956;2023-06-19T04:30:49;11.52;;;9.35;;
12597;SDS011;6364;53.590;9.956;2023-06-19T04:33:14;14.15;;;9.18;;
12597;SDS011;6364;53.590;9.956;2023-06-19T04:35:40;10.93;;;8.85;;
12597;SDS011;6364;53.590;9.956;2023-06-19T04:38:05;12.48;;;9.10;;
12597;SDS011;6364;53.590;9.956;2023-06-19T04:40:31;11.68;;;9.40;;
12597;SDS011;6364;53.590;9.956;2023-06-19T04:42:57;13.07;;;9.27;;
12597;SDS011;6364;53.590;9.956;2023-06-19T04:45:22;10.45;;;9.35;;
12597;SDS011;6364;53.590;9.956;2023-06-19T04:47:48;11.20;;;9.35;;
12597;SDS011;6364;53.590;9.956;2023-06-19T04:50:13;29.08;;;9.63;;
12597;SDS011;6364;53.590;9.956;2023-06-19T04:52:40;16.55;;;9.15;;
12597;SDS011;6364;53.590;9.956;2023-06-19T04:55:07;11.27;;;8.73;;
12597;SDS011;6364;53.590;9.956;2023-06-19T04:57:35;16.35;;;9.48;;
12597;SDS011;6364;53.590;9.956;2023-06-19T05:00:03;12.82;;;9.70;;
12597;SDS011;6364;53.590;9.956;2023-06-19T05:02:30;15.23;;;10.13;;
12597;SDS011;6364;53.590;9.956;2023-06-19T05:04:56;14.65;;;9.43;;
12597;SDS011;6364;53.590;9.956;2023-06-19T05:07:21;12.50;;;9.48;;
12597;SDS011;6364;53.590;9.956;2023-06-19T05:09:47;14.20;;;10.02;;
12597;SDS011;6364;53.590;9.956;2023-06-19T05:12:12;10.32;;;8.88;;
12597;SDS011;6364;53.590;9.956;2023-06-19T05:14:37;10.48;;;8.82;;
12597;SDS011;6364;53.590;9.956;2023-06-19T05:17:03;16.50;;;10.00;;
12597;SDS011;6364;53.590;9.956;2023-06-19T05:19:28;17.48;;;9.35;;
12597;SDS011;6364;53.590;9.956;2023-06-19T05:21:53;11.82;;;9.95;;
12597;SDS011;6364;53.590;9.956;2023-06-19T05:24:18;19.00;;;10.05;;
12597;SDS011;6364;53.590;9.956;2023-06-19T05:26:44;15.95;;;9.82;;
12597;SDS011;6364;53.590;9.956;2023-06-19T05:29:09;13.50;;;9.55;;
12597;SDS011;6364;53.590;9.956;2023-06-19T05:31:36;10.73;;;9.65;;
12597;SDS011;6364;53.590;9.956;2023-06-19T05:34:01;13.68;;;10.07;;
12597;SDS011;6364;53.590;9.956;2023-06-19T05:36:26;12.15;;;9.68;;
12597;SDS011;6364;53.590;9.956;2023-06-19T05:38:52;12.07;;;9.35;;
12597;SDS011;6364;53.590;9.956;2023-06-19T05:41:17;17.38;;;10.00;;
12597;SDS011;6364;53.590;9.956;2023-06-19T05:43:42;15.68;;;9.60;;
12597;SDS011;6364;53.590;9.956;2023-06-19T05:46:08;12.40;;;9.35;;
12597;SDS011;6364;53.590;9.956;2023-06-19T05:48:33;22.63;;;10.60;;
12597;SDS011;6364;53.590;9.956;2023-06-19T05:50:59;15.25;;;9.50;;
12597;SDS011;6364;53.590;9.956;2023-06-19T05:53:24;19.30;;;9.20;;
12597;SDS011;6364;53.590;9.956;2023-06-19T05:55:50;46.38;;;10.63;;
12597;SDS011;6364;53.590;9.956;2023-06-19T05:58:16;20.10;;;10.20;;
12597;SDS011;6364;53.590;9.956;2023-06-19T06:00:44;32.72;;;10.43;;
12597;SDS011;6364;53.590;9.956;2023-06-19T06:03:10;21.13;;;9.95;;
12597;SDS011;6364;53.590;9.956;2023-06-19T06:05:35;17.30;;;10.48;;
12597;SDS011;6364;53.590;9.956;2023-06-19T06:08:01;12.43;;;9.93;;
12597;SDS011;6364;53.590;9.956;2023-06-19T06:10:26;12.30;;;10.20;;
12597;SDS011;6364;53.590;9.956;2023-06-19T06:12:52;11.68;;;10.13;;
12597;SDS011;6364;53.590;9.956;2023-06-19T06:15:17;12.45;;;10.55;;
12597;SDS011;6364;53.590;9.956;2023-06-19T06:17:42;14.40;;;10.45;;
12597;SDS011;6364;53.590;9.956;2023-06-19T06:20:08;12.07;;;10.85;;
12597;SDS011;6364;53.590;9.956;2023-06-19T06:22:37;13.60;;;10.27;;
12597;SDS011;6364;53.590;9.956;2023-06-19T06:25:06;13.52;;;10.60;;
12597;SDS011;6364;53.590;9.956;2023-06-19T06:27:32;19.25;;;10.55;;
12597;SDS011;6364;53.590;9.956;2023-06-19T06:29:57;17.55;;;10.82;;
12597;SDS011;6364;53.590;9.956;2023-06-19T06:32:23;15.98;;;11.27;;
12597;SDS011;6364;53.590;9.956;2023-06-19T06:34:48;19.85;;;11.15;;
12597;SDS011;6364;53.590;9.956;2023-06-19T06:37:13;14.60;;;11.10;;
12597;SDS011;6364;53.590;9.956;2023-06-19T06:39:41;14.40;;;11.55;;
12597;SDS011;6364;53.590;9.956;2023-06-19T06:42:06;17.58;;;11.93;;
12597;SDS011;6364;53.590;9.956;2023-06-19T06:44:31;17.70;;;11.63;;
12597;SDS011;6364;53.590;9.956;2023-06-19T06:46:57;13.15;;;10.95;;
12597;SDS011;6364;53.590;9.956;2023-06-19T06:49:22;17.15;;;11.57;;
12597;SDS011;6364;53.590;9.956;2023-06-19T06:51:47;17.90;;;11.25;;
12597;SDS011;6364;53.590;9.956;2023-06-19T06:54:13;14.90;;;12.68;;
12597;SDS011;6364;53.590;9.956;2023-06-19T06:56:38;18.58;;;12.05;;
12597;SDS011;6364;53.590;9.956;2023-06-19T06:59:03;16.25;;;11.75;;
12597;SDS011;6364;53.590;9.956;2023-06-19T07:01:29;15.77;;;11.15;;
12597;SDS011;6364;53.590;9.956;2023-06-19T07:03:54;13.43;;;11.63;;
12597;SDS011;6364;53.590;9.956;2023-06-19T07:06:19;18.92;;;12.05;;
12597;SDS011;6364;53.590;9.956;2023-06-19T07:08:45;19.15;;;12.07;;
12597;SDS011;6364;53.590;9.956;2023-06-19T07:11:12;18.08;;;11.25;;
12597;SDS011;6364;53.590;9.956;2023-06-19T07:13:38;13.75;;;11.43;;
12597;SDS011;6364;53.590;9.956;2023-06-19T07:16:03;24.30;;;12.98;;
12597;SDS011;6364;53.590;9.956;2023-06-19T07:18:29;24.25;;;12.32;;
12597;SDS011;6364;53.590;9.956;2023-06-19T07:20:55;14.65;;;11.73;;
12597;SDS011;6364;53.590;9.956;2023-06-19T07:23:20;16.23;;;11.90;;
12597;SDS011;6364;53.590;9.956;2023-06-19T07:25:46;17.58;;;11.80;;
12597;SDS011;6364;53.590;9.956;2023-06-19T07:28:12;15.75;;;11.82;;
12597;SDS011;6364;53.590;9.956;2023-06-19T07:30:38;13.82;;;12.15;;
12597;SDS011;6364;53.590;9.956;2023-06-19T07:33:04;16.77;;;12.05;;
12597;SDS011;6364;53.590;9.956;2023-06-19T07:35:29;16.90;;;10.82;;
12597;SDS011;6364;53.590;9.956;2023-06-19T07:37:54;14.80;;;11.15;;
12597;SDS011;6364;53.590;9.956;2023-06-19T07:40:20;14.93;;;11.45;;
12597;SDS011;6364;53.590;9.956;2023-06-19T07:42:45;14.73;;;11.32;;
12597;SDS011;6364;53.590;9.956;2023-06-19T07:45:11;16.02;;;11.32;;
12597;SDS011;6364;53.590;9.956;2023-06-19T07:47:37;14.93;;;11.55;;
12597;SDS011;6364;53.590;9.956;2023-06-19T07:50:02;15.05;;;11.65;;
12597;SDS011;6364;53.590;9.956;2023-06-19T07:52:28;15.48;;;11.18;;
12597;SDS011;6364;53.590;9.956;2023-06-19T07:54:54;13.32;;;11.43;;
12597;SDS011;6364;53.590;9.956;2023-06-19T07:57:20;15.23;;;11.35;;
12597;SDS011;6364;53.590;9.956;2023-06-19T07:59:47;13.80;;;10.95;;
12597;SDS011;6364;53.590;9.956;2023-06-19T08:02:13;15.25;;;11.68;;
12597;SDS011;6364;53.590;9.956;2023-06-19T08:04:38;15.02;;;11.70;;
12597;SDS011;6364;53.590;9.956;2023-06-19T08:07:03;16.50;;;11.77;;
12597;SDS011;6364;53.590;9.956;2023-06-19T08:09:29;15.30;;;11.80;;
12597;SDS011;6364;53.590;9.956;2023-06-19T08:11:54;14.68;;;11.77;;
12597;SDS011;6364;53.590;9.956;2023-06-19T08:14:19;15.68;;;11.63;;
12597;SDS011;6364;53.590;9.956;2023-06-19T08:16:45;21.85;;;12.48;;
12597;SDS011;6364;53.590;9.956;2023-06-19T08:19:10;19.27;;;12.20;;
12597;SDS011;6364;53.590;9.956;2023-06-19T08:21:35;15.57;;;12.35;;
12597;SDS011;6364;53.590;9.956;2023-06-19T08:24:01;14.13;;;12.50;;
12597;SDS011;6364;53.590;9.956;2023-06-19T08:26:26;14.45;;;12.13;;
12597;SDS011;6364;53.590;9.956;2023-06-19T08:28:52;15.43;;;11.38;;
12597;SDS011;6364;53.590;9.956;2023-06-19T08:31:17;14.95;;;11.90;;
12597;SDS011;6364;53.590;9.956;2023-06-19T08:33:42;15.07;;;12.35;;
12597;SDS011;6364;53.590;9.956;2023-06-19T08:36:08;17.27;;;12.23;;
12597;SDS011;6364;53.590;9.956;2023-06-19T08:38:33;16.63;;;12.25;;
12597;SDS011;6364;53.590;9.956;2023-06-19T08:40:58;15.68;;;12.93;;
12597;SDS011;6364;53.590;9.956;2023-06-19T08:43:24;12.65;;;11.27;;
12597;SDS011;6364;53.590;9.956;2023-06-19T08:48:39;18.38;;;11.38;;
12597;SDS011;6364;53.590;9.956;2023-06-19T08:51:04;13.07;;;11.70;;
12597;SDS011;6364;53.590;9.956;2023-06-19T08:53:33;16.55;;;11.75;;
12597;SDS011;6364;53.590;9.956;2023-06-19T08:56:00;15.10;;;12.02;;
12597;SDS011;6364;53.590;9.956;2023-06-19T08:58:25;11.98;;;10.77;;
12597;SDS011;6364;53.590;9.956;2023-06-19T09:00:51;17.50;;;12.00;;
12597;SDS011;6364;53.590;9.956;2023-06-19T09:03:20;14.38;;;12.07;;
12597;SDS011;6364;53.590;9.956;2023-06-19T09:05:46;14.82;;;11.27;;
12597;SDS011;6364;53.590;9.956;2023-06-19T09:08:15;14.88;;;12.30;;
12597;SDS011;6364;53.590;9.956;2023-06-19T09:10:53;15.05;;;11.20;;
12597;SDS011;6364;53.590;9.956;2023-06-19T09:13:19;14.82;;;11.95;;
12597;SDS011;6364;53.590;9.956;2023-06-19T09:15:45;21.65;;;12.40;;
12597;SDS011;6364;53.590;9.956;2023-06-19T09:18:10;19.52;;;12.60;;
12597;SDS011;6364;53.590;9.956;2023-06-19T09:20:38;15.77;;;12.52;;
12597;SDS011;6364;53.590;9.956;2023-06-19T09:23:08;16.15;;;11.52;;
12597;SDS011;6364;53.590;9.956;2023-06-19T09:25:44;13.52;;;11.32;;
12597;SDS011;6364;53.590;9.956;2023-06-19T09:28:16;14.65;;;12.25;;
12597;SDS011;6364;53.590;9.956;2023-06-19T09:30:52;14.75;;;11.45;;
12597;SDS011;6364;53.590;9.956;2023-06-19T09:33:17;16.05;;;12.07;;
12597;SDS011;6364;53.590;9.956;2023-06-19T09:35:42;14.65;;;11.60;;
12597;SDS011;6364;53.590;9.956;2023-06-19T09:38:08;15.55;;;12.35;;
12597;SDS011;6364;53.590;9.956;2023-06-19T09:40:34;17.10;;;12.23;;
12597;SDS011;6364;53.590;9.956;2023-06-19T09:42:59;13.15;;;11.48;;
12597;SDS011;6364;53.590;9.956;2023-06-19T09:45:26;15.35;;;10.70;;
12597;SDS011;6364;53.590;9.956;2023-06-19T09:47:54;18.23;;;12.23;;
12597;SDS011;6364;53.590;9.956;2023-06-19T09:50:19;20.17;;;12.52;;
12597;SDS011;6364;53.590;9.956;2023-06-19T09:52:47;14.60;;;12.30;;
12597;SDS011;6364;53.590;9.956;2023-06-19T09:55:16;16.60;;;12.20;;
12597;SDS011;6364;53.590;9.956;2023-06-19T09:57:43;18.20;;;12.70;;
12597;SDS011;6364;53.590;9.956;2023-06-19T10:00:09;18.27;;;13.25;;
12597;SDS011;6364;53.590;9.956;2023-06-19T10:02:37;14.70;;;13.20;;
12597;SDS011;6364;53.590;9.956;2023-06-19T10:05:04;14.00;;;11.95;;
12597;SDS011;6364;53.590;9.956;2023-06-19T10:07:34;15.70;;;12.82;;
12597;SDS011;6364;53.590;9.956;2023-06-19T10:15:40;19.35;;;12.18;;
12597;SDS011;6364;53.590;9.956;2023-06-19T10:18:05;15.68;;;12.38;;
12597;SDS011;6364;53.590;9.956;2023-06-19T10:22:58;15.80;;;12.02;;
12597;SDS011;6364;53.590;9.956;2023-06-19T10:25:27;14.20;;;12.30;;
12597;SDS011;6364;53.590;9.956;2023-06-19T10:27:54;18.50;;;12.93;;
12597;SDS011;6364;53.590;9.956;2023-06-19T10:30:19;16.05;;;12.38;;
12597;SDS011;6364;53.590;9.956;2023-06-19T10:32:46;19.42;;;13.48;;
12597;SDS011;6364;53.590;9.956;2023-06-19T10:35:12;14.25;;;11.05;;
12597;SDS011;6364;53.590;9.956;2023-06-19T10:37:40;14.20;;;11.55;;
12597;SDS011;6364;53.590;9.956;2023-06-19T10:40:06;14.60;;;12.43;;
12597;SDS011;6364;53.590;9.956;2023-06-19T10:42:42;21.05;;;11.25;;
12597;SDS011;6364;53.590;9.956;2023-06-19T10:45:09;16.77;;;12.18;;
12597;SDS011;6364;53.590;9.956;2023-06-19T10:47:37;13.95;;;11.82;;
12597;SDS011;6364;53.590;9.956;2023-06-19T10:50:03;18.10;;;11.88;;
12597;SDS011;6364;53.590;9.956;2023-06-19T10:52:29;16.23;;;11.88;;
12597;SDS011;6364;53.590;9.956;2023-06-19T10:54:55;14.18;;;12.00;;
12597;SDS011;6364;53.590;9.956;2023-06-19T10:57:30;13.20;;;11.50;;
12597;SDS011;6364;53.590;9.956;2023-06-19T10:59:55;12.73;;;11.43;;
12597;SDS011;6364;53.590;9.956;2023-06-19T11:02:21;13.95;;;11.93;;
12597;SDS011;6364;53.590;9.956;2023-06-19T11:04:47;13.32;;;11.93;;
12597;SDS011;6364;53.590;9.956;2023-06-19T11:07:12;13.93;;;11.98;;
12597;SDS011;6364;53.590;9.956;2023-06-19T11:09:38;17.77;;;13.00;;
12597;SDS011;6364;53.590;9.956;2023-06-19T11:12:03;14.05;;;11.38;;
12597;SDS011;6364;53.590;9.956;2023-06-19T11:14:32;14.32;;;10.88;;
12597;SDS011;6364;53.590;9.956;2023-06-19T11:17:04;10.80;;;9.70;;
12597;SDS011;6364;53.590;9.956;2023-06-19T11:19:32;10.25;;;9.25;;
12597;SDS011;6364;53.590;9.956;2023-06-19T11:21:58;13.23;;;9.98;;
12597;SDS011;6364;53.590;9.956;2023-06-19T11:24:25;12.15;;;9.73;;
12597;SDS011;6364;53.590;9.956;2023-06-19T11:26:51;12.25;;;10.20;;
12597;SDS011;6364;53.590;9.956;2023-06-19T11:29:21;13.15;;;9.20;;
12597;SDS011;6364;53.590;9.956;2023-06-19T11:31:48;16.80;;;9.88;;
12597;SDS011;6364;53.590;9.956;2023-06-19T11:34:14;10.48;;;9.45;;
12597;SDS011;6364;53.590;9.956;2023-06-19T11:36:40;9.68;;;8.68;;
12597;SDS011;6364;53.590;9.956;2023-06-19T11:39:12;10.77;;;9.45;;
12597;SDS011;6364;53.590;9.956;2023-06-19T11:41:41;10.05;;;8.43;;
12597;SDS011;6364;53.590;9.956;2023-06-19T11:44:08;9.60;;;8.70;;
12597;SDS011;6364;53.590;9.956;2023-06-19T11:46:37;10.63;;;8.40;;
12597;SDS011;6364;53.590;9.956;2023-06-19T11:49:16;9.45;;;8.55;;
12597;SDS011;6364;53.590;9.956;2023-06-19T11:51:43;11.43;;;8.07;;
12597;SDS011;6364;53.590;9.956;2023-06-19T11:54:08;10.65;;;8.20;;
12597;SDS011;6364;53.590;9.956;2023-06-19T11:56:38;9.52;;;8.30;;
12597;SDS011;6364;53.590;9.956;2023-06-19T11:59:03;10.10;;;8.27;;
12597;SDS011;6364;53.590;9.956;2023-06-19T12:01:31;8.57;;;7.68;;
12597;SDS011;6364;53.590;9.956;2023-06-19T12:03:56;9.13;;;8.00;;
12597;SDS011;6364;53.590;9.956;2023-06-19T12:06:22;10.60;;;7.88;;
12597;SDS011;6364;53.590;9.956;2023-06-19T12:08:47;8.95;;;7.97;;
12597;SDS011;6364;53.590;9.956;2023-06-19T12:11:13;8.70;;;7.72;;
12597;SDS011;6364;53.590;9.956;2023-06-19T12:13:41;10.40;;;7.93;;
12597;SDS011;6364;53.590;9.956;2023-06-19T12:16:07;11.10;;;7.75;;
12597;SDS011;6364;53.590;9.956;2023-06-19T12:18:33;9.25;;;8.25;;
12597;SDS011;6364;53.590;9.956;2023-06-19T12:20:58;9.20;;;7.95;;
12597;SDS011;6364;53.590;9.956;2023-06-19T12:23:23;10.75;;;7.95;;
12597;SDS011;6364;53.590;9.956;2023-06-19T12:25:49;10.32;;;7.53;;
12597;SDS011;6364;53.590;9.956;2023-06-19T12:28:14;9.57;;;7.60;;
12597;SDS011;6364;53.590;9.956;2023-06-19T12:30:43;12.27;;;7.75;;
12597;SDS011;6364;53.590;9.956;2023-06-19T12:33:09;10.05;;;7.80;;
12597;SDS011;6364;53.590;9.956;2023-06-19T12:35:34;13.30;;;7.93;;
12597;SDS011;6364;53.590;9.956;2023-06-19T12:38:00;9.45;;;7.55;;
12597;SDS011;6364;53.590;9.956;2023-06-19T12:40:25;11.00;;;7.50;;
12597;SDS011;6364;53.590;9.956;2023-06-19T12:42:50;7.53;;;6.80;;
12597;SDS011;6364;53.590;9.956;2023-06-19T12:45:16;9.35;;;6.90;;
12597;SDS011;6364;53.590;9.956;2023-06-19T12:47:41;10.23;;;7.25;;
12597;SDS011;6364;53.590;9.956;2023-06-19T12:50:06;10.75;;;7.10;;
12597;SDS011;6364;53.590;9.956;2023-06-19T12:52:32;10.25;;;6.97;;
12597;SDS011;6364;53.590;9.956;2023-06-19T12:54:58;14.68;;;8.55;;
12597;SDS011;6364;53.590;9.956;2023-06-19T12:57:26;10.32;;;7.45;;
12597;SDS011;6364;53.590;9.956;2023-06-19T12:59:51;8.57;;;7.05;;
12597;SDS011;6364;53.590;9.956;2023-06-19T13:02:17;8.80;;;6.63;;
12597;SDS011;6364;53.590;9.956;2023-06-19T13:04:42;10.70;;;7.57;;
12597;SDS011;6364;53.590;9.956;2023-06-19T13:07:07;10.32;;;7.35;;
12597;SDS011;6364;53.590;9.956;2023-06-19T13:09:33;8.82;;;7.00;;
12597;SDS011;6364;53.590;9.956;2023-06-19T13:11:58;9.48;;;7.40;;
12597;SDS011;6364;53.590;9.956;2023-06-19T13:14:23;8.07;;;7.10;;
12597;SDS011;6364;53.590;9.956;2023-06-19T13:16:48;7.70;;;6.60;;
12597;SDS011;6364;53.590;9.956;2023-06-19T13:19:14;14.30;;;6.07;;
12597;SDS011;6364;53.590;9.956;2023-06-19T13:21:40;8.63;;;6.00;;
12597;SDS011;6364;53.590;9.956;2023-06-19T13:24:06;8.38;;;6.28;;
12597;SDS011;6364;53.590;9.956;2023-06-19T13:26:31;6.50;;;5.75;;
12597;SDS011;6364;53.590;9.956;2023-06-19T13:28:56;6.95;;;6.25;;
12597;SDS011;6364;53.590;9.956;2023-06-19T13:31:24;6.63;;;5.90;;
12597;SDS011;6364;53.590;9.956;2023-06-19T13:33:49;9.45;;;6.47;;
12597;SDS011;6364;53.590;9.956;2023-06-19T13:36:15;16.05;;;6.65;;
12597;SDS011;6364;53.590;9.956;2023-06-19T13:38:40;7.95;;;6.38;;
12597;SDS011;6364;53.590;9.956;2023-06-19T13:41:05;11.20;;;6.47;;
12597;SDS011;6364;53.590;9.956;2023-06-19T13:43:31;8.88;;;6.43;;
12597;SDS011;6364;53.590;9.956;2023-06-19T13:45:56;8.02;;;6.63;;
12597;SDS011;6364;53.590;9.956;2023-06-19T13:48:22;9.38;;;6.28;;
12597;SDS011;6364;53.590;9.956;2023-06-19T13:50:47;9.50;;;5.32;;
12597;SDS011;6364;53.590;9.956;2023-06-19T13:53:12;8.65;;;6.30;;
12597;SDS011;6364;53.590;9.956;2023-06-19T13:55:38;10.25;;;6.05;;
12597;SDS011;6364;53.590;9.956;2023-06-19T13:58:03;10.02;;;5.63;;
12597;SDS011;6364;53.590;9.956;2023-06-19T14:00:28;11.55;;;6.00;;
12597;SDS011;6364;53.590;9.956;2023-06-19T14:02:54;11.80;;;5.72;;
12597;SDS011;6364;53.590;9.956;2023-06-19T14:05:19;6.30;;;5.70;;
12597;SDS011;6364;53.590;9.956;2023-06-19T14:07:44;7.35;;;5.68;;
12597;SDS011;6364;53.590;9.956;2023-06-19T14:10:10;12.65;;;5.65;;
12597;SDS011;6364;53.590;9.956;2023-06-19T14:12:35;18.40;;;5.78;;
12597;SDS011;6364;53.590;9.956;2023-06-19T14:15:01;6.75;;;5.57;;
12597;SDS011;6364;53.590;9.956;2023-06-19T14:17:26;7.53;;;5.25;;
12597;SDS011;6364;53.590;9.956;2023-06-19T14:19:51;9.45;;;5.45;;
12597;SDS011;6364;53.590;9.956;2023-06-19T14:22:17;8.68;;;5.55;;
12597;SDS011;6364;53.590;9.956;2023-06-19T14:24:42;5.95;;;5.35;;
12597;SDS011;6364;53.590;9.956;2023-06-19T14:27:08;9.23;;;4.85;;
12597;SDS011;6364;53.590;9.956;2023-06-19T14:29:33;6.05;;;5.45;;
12597;SDS011;6364;53.590;9.956;2023-06-19T14:31:59;7.22;;;5.03;;
12597;SDS011;6364;53.590;9.956;2023-06-19T14:34:24;7.68;;;4.95;;
12597;SDS011;6364;53.590;9.956;2023-06-19T14:36:49;6.57;;;5.22;;
12597;SDS011;6364;53.590;9.956;2023-06-19T14:39:15;13.00;;;5.68;;
12597;SDS011;6364;53.590;9.956;2023-06-19T14:41:41;13.05;;;5.47;;
12597;SDS011;6364;53.590;9.956;2023-06-19T14:44:06;6.80;;;4.88;;
12597;SDS011;6364;53.590;9.956;2023-06-19T14:46:32;12.90;;;5.20;;
12597;SDS011;6364;53.590;9.956;2023-06-19T14:48:57;6.45;;;5.13;;
12597;SDS011;6364;53.590;9.956;2023-06-19T14:51:24;11.25;;;5.68;;
12597;SDS011;6364;53.590;9.956;2023-06-19T14:53:50;7.22;;;5.03;;
12597;SDS011;6364;53.590;9.956;2023-06-19T14:56:16;9.68;;;5.70;;